createdAt,value
2019-01-29T06:26:26.813Z,12.70
2019-01-29T06:27:23.627Z,12.10
2019-01-29T06:28:23.516Z,11.60
2019-01-29T06:29:23.952Z,11.20
2019-01-29T06:30:23.379Z,10.80
2019-01-29T06:31:23.337Z,11.50
2019-01-29T06:32:23.304Z,11.80
2019-01-29T06:33:23.379Z,11.00
2019-01-29T06:34:23.326Z,11.50
2019-01-29T06:35:23.652Z,12.00
2019-01-29T06:36:23.238Z,11.50
2019-01-29T06:37:23.440Z,12.00
2019-01-29T06:38:23.153Z,11.70
2019-01-29T06:39:23.142Z,11.70
2019-01-29T06:40:23.244Z,11.00
2019-01-29T06:41:23.804Z,12.00
2019-01-29T06:42:23.119Z,11.80
2019-01-29T06:43:23.264Z,10.70
2019-01-29T06:44:23.135Z,11.40
2019-01-29T06:45:23.155Z,11.60
2019-01-29T06:46:23.237Z,11.30
2019-01-29T06:47:24.021Z,11.50
2019-01-29T06:48:23.044Z,11.50
2019-01-29T06:49:23.080Z,11.80
2019-01-29T06:50:23.681Z,11.10
2019-01-29T06:51:40.575Z,11.00
2019-01-29T06:52:23.048Z,11.50
2019-01-29T06:53:23.219Z,11.30
2019-01-29T06:54:23.215Z,10.80
2019-01-29T06:55:23.176Z,11.50
2019-01-29T06:56:23.194Z,11.10
2019-01-29T06:57:23.452Z,11.70
2019-01-29T06:58:23.003Z,11.30
2019-01-29T06:59:23.316Z,11.00
2019-01-29T07:00:22.990Z,11.10
2019-01-29T07:01:22.998Z,11.40
2019-01-29T07:02:23.093Z,11.70
2019-01-29T07:03:24.195Z,11.60
2019-01-29T07:04:23.198Z,10.80
2019-01-29T07:05:22.882Z,11.70
2019-01-29T07:06:22.865Z,11.90
2019-01-29T07:07:22.938Z,11.40
2019-01-29T07:08:22.906Z,11.50
2019-01-29T07:09:22.913Z,11.60
2019-01-29T07:10:23.140Z,11.20
2019-01-29T07:11:23.134Z,11.10
2019-01-29T07:12:22.903Z,11.70
2019-01-29T07:13:24.874Z,11.50
2019-01-29T07:14:24.094Z,11.80
2019-01-29T07:15:23.023Z,10.80
2019-01-29T07:16:23.341Z,10.70
2019-01-29T07:17:23.062Z,11.70
2019-01-29T07:18:23.802Z,11.00
2019-01-29T07:20:25.255Z,11.30
2019-01-29T07:21:23.512Z,11.70
2019-01-29T07:22:23.065Z,11.60
2019-01-29T07:23:23.177Z,11.10
2019-01-29T07:24:23.066Z,12.00
2019-01-29T07:25:22.727Z,11.40
2019-01-29T07:26:22.784Z,12.20
2019-01-29T07:27:22.829Z,11.60
2019-01-29T07:28:22.750Z,11.30
2019-01-29T07:29:22.705Z,11.50
2019-01-29T07:30:22.741Z,11.20
2019-01-29T07:31:22.744Z,11.60
2019-01-29T07:32:22.734Z,11.60
2019-01-29T07:33:22.581Z,11.30
2019-01-29T07:34:22.969Z,11.80
2019-01-29T07:35:22.652Z,11.60
2019-01-29T07:36:22.684Z,10.90
2019-01-29T07:37:22.605Z,12.00
2019-01-29T07:38:22.772Z,11.30
2019-01-29T07:39:22.658Z,11.00
2019-01-29T07:40:22.567Z,11.70
2019-01-29T07:41:22.914Z,11.60
2019-01-29T07:42:22.580Z,11.90
2019-01-29T07:43:22.661Z,12.00
2019-01-29T07:44:22.991Z,11.30
2019-01-29T07:45:22.628Z,11.20
2019-01-29T07:46:25.279Z,11.40
2019-01-29T07:47:24.491Z,11.70
2019-01-29T07:48:22.705Z,11.20
2019-01-29T07:49:23.196Z,11.20
2019-01-29T07:50:23.630Z,11.90
2019-01-29T07:51:23.024Z,11.00
2019-01-29T07:52:25.111Z,10.60
2019-01-29T07:53:24.192Z,12.10
2019-01-29T07:54:23.365Z,10.80
2019-01-29T07:55:23.067Z,10.60
2019-01-29T07:56:23.088Z,11.00
2019-01-29T07:57:22.587Z,11.20
2019-01-29T07:58:24.569Z,11.60
2019-01-29T07:59:32.630Z,10.80
2019-01-29T08:00:23.668Z,10.50
2019-01-29T08:01:22.566Z,11.00
2019-01-29T08:02:23.035Z,11.00
2019-01-29T08:03:22.814Z,11.00
2019-01-29T08:04:22.846Z,10.90
2019-01-29T08:05:23.792Z,10.40
2019-01-29T08:06:23.446Z,11.50
2019-01-29T08:07:23.902Z,11.50
2019-01-29T08:08:23.480Z,11.50
2019-01-29T08:09:23.063Z,11.60
2019-01-29T08:10:24.604Z,11.90
2019-01-29T08:11:24.606Z,11.20
2019-01-29T08:12:22.992Z,10.60
2019-01-29T08:13:23.864Z,12.50
2019-01-29T08:14:25.648Z,13.20
2019-01-29T08:15:22.860Z,12.70
2019-01-29T08:16:23.123Z,12.80
2019-01-29T08:17:25.521Z,12.70
2019-01-29T08:18:22.643Z,12.60
2019-01-29T08:19:24.341Z,12.20
2019-01-29T08:20:23.261Z,12.90
2019-01-29T08:21:24.310Z,13.40
2019-01-29T08:22:22.543Z,13.10
2019-01-29T08:23:22.239Z,12.70
2019-01-29T08:24:23.955Z,13.00
2019-01-29T08:25:22.289Z,12.90
2019-01-29T08:26:23.457Z,12.50
2019-01-29T08:27:23.167Z,12.80
2019-01-29T08:28:22.516Z,12.00
2019-01-29T08:29:22.230Z,12.30
2019-01-29T08:30:22.502Z,13.40
2019-01-29T08:31:22.543Z,12.90
2019-01-29T08:32:22.376Z,13.00
2019-01-29T08:33:23.390Z,13.00
2019-01-29T08:34:22.649Z,12.90
2019-01-29T08:35:23.214Z,13.70
2019-01-29T08:36:22.539Z,13.80
2019-01-29T08:37:23.586Z,14.10
2019-01-29T08:38:22.858Z,13.90
2019-01-29T08:39:22.609Z,14.30
2019-01-29T08:40:22.092Z,14.20
2019-01-29T08:41:24.980Z,14.50
2019-01-29T08:42:24.056Z,13.50
2019-01-29T08:43:22.375Z,13.90
2019-01-29T08:44:22.542Z,14.70
2019-01-29T08:45:22.020Z,14.10
2019-01-29T08:46:23.347Z,15.30
2019-01-29T08:47:22.340Z,13.90
2019-01-29T08:48:22.129Z,14.30
2019-01-29T08:49:22.269Z,14.90
2019-01-29T08:50:22.581Z,14.40
2019-01-29T08:51:23.067Z,14.40
2019-01-29T08:52:22.659Z,15.20
2019-01-29T08:53:22.042Z,14.90
2019-01-29T08:54:21.916Z,15.40
2019-01-29T08:55:22.203Z,14.40
2019-01-29T08:56:22.745Z,15.60
2019-01-29T08:57:23.165Z,15.00
2019-01-29T08:58:27.246Z,15.30
2019-01-29T08:59:22.548Z,15.00
2019-01-29T09:00:22.210Z,15.40
2019-01-29T09:01:23.078Z,15.00
2019-01-29T09:02:23.669Z,15.60
2019-01-29T09:03:23.167Z,15.60
2019-01-29T09:04:24.130Z,14.40
2019-01-29T13:39:58.864Z,2.10
2019-01-29T13:40:50.184Z,1.70
2019-01-29T13:41:50.832Z,2.00
2019-01-29T13:45:09.555Z,2.00
2019-01-29T14:29:07.748Z,2.30
2019-01-29T14:30:08.408Z,2.80
2019-01-29T14:31:08.147Z,3.00
2019-01-29T14:32:07.530Z,2.80
2019-01-29T14:33:07.487Z,2.90
2019-01-29T14:34:07.507Z,3.10
2019-01-29T14:35:07.542Z,2.70
2019-01-29T14:36:16.519Z,3.10
2019-01-29T16:23:45.471Z,2.80
2019-01-29T16:24:45.958Z,5.10
2019-01-29T16:25:43.909Z,5.50
2019-01-29T16:26:52.119Z,4.90
2019-01-29T16:27:49.758Z,5.10
2019-01-29T16:28:51.366Z,4.40
2019-01-29T16:29:45.416Z,4.80
2019-01-29T16:30:45.278Z,4.80
2019-01-29T16:40:50.807Z,5.10
2019-01-29T16:41:50.344Z,5.10
2019-01-29T16:42:51.066Z,5.30
2019-01-29T16:43:51.964Z,5.50
2019-01-29T16:44:50.874Z,5.00
2019-01-29T16:45:50.681Z,5.20
2019-01-29T16:46:51.398Z,5.00
2019-01-29T16:47:50.071Z,5.00
2019-01-29T16:48:52.414Z,5.90
2019-01-29T16:49:49.989Z,5.40
2019-01-29T16:50:50.041Z,5.40
2019-01-29T16:51:49.716Z,5.60
2019-01-29T16:52:49.954Z,5.90
2019-01-29T16:53:49.703Z,5.80
2019-01-29T16:54:50.982Z,5.30
2019-01-29T16:55:50.893Z,5.50
2019-01-29T16:56:49.783Z,5.50
2019-01-29T16:57:50.174Z,5.20
2019-01-29T16:58:50.151Z,5.20
2019-01-29T16:59:50.565Z,5.10
2019-01-29T17:00:49.701Z,5.00
2019-01-29T17:01:49.661Z,5.00
2019-01-29T17:03:50.042Z,5.00
2019-01-29T17:04:49.751Z,5.00
2019-01-29T17:05:49.582Z,4.80
2019-01-29T17:06:49.701Z,5.60
2019-01-29T17:07:49.567Z,5.30
2019-01-29T17:08:49.644Z,4.90
2019-01-29T17:09:49.570Z,5.10
2019-01-29T17:10:49.532Z,5.20
2019-01-29T17:11:50.553Z,4.50
2019-01-29T17:12:49.564Z,5.20
2019-01-29T17:13:49.595Z,4.80
2019-01-29T17:14:49.971Z,5.30
2019-01-29T17:15:51.925Z,5.10
2019-01-29T17:16:52.428Z,4.90
2019-01-29T17:17:49.517Z,4.70
2019-01-29T17:18:49.582Z,5.20
2019-01-29T17:19:50.409Z,5.20
2019-01-29T17:20:52.938Z,4.70
2019-01-29T17:21:49.564Z,4.80
2019-01-29T17:22:49.987Z,4.80
2019-01-29T17:23:49.855Z,5.20
2019-01-29T17:24:49.575Z,5.20
2019-01-29T17:25:49.953Z,5.20
2019-01-29T17:26:49.543Z,5.10
2019-01-29T17:27:51.895Z,4.70
2019-01-29T17:29:00.328Z,5.30
2019-01-29T17:30:00.871Z,5.40
2019-01-29T18:41:03.030Z,4.80
2019-01-29T18:42:03.248Z,6.80
2019-01-29T18:43:03.911Z,5.90
2019-01-29T18:44:02.903Z,6.20
2019-01-29T18:45:02.961Z,5.70
2019-01-29T18:46:04.922Z,5.60
2019-01-29T18:47:02.913Z,6.30
2019-01-29T18:48:02.917Z,6.10
2019-01-29T18:49:02.955Z,6.10
2019-01-29T18:50:02.860Z,6.40
2019-01-29T18:51:02.972Z,6.10
2019-01-29T18:52:02.953Z,6.50
2019-01-29T18:53:02.838Z,6.50
2019-01-29T18:54:02.920Z,7.10
2019-01-29T18:55:02.955Z,7.00
2019-01-29T18:56:02.806Z,7.00
2019-01-29T18:57:02.926Z,7.80
2019-01-29T18:58:11.463Z,7.70
2019-01-29T18:59:03.948Z,8.00
2019-01-29T19:00:03.036Z,8.30
2019-01-29T19:01:02.818Z,8.70
2019-01-29T19:02:02.807Z,8.40
2019-01-29T19:03:02.870Z,7.50
2019-01-29T19:04:02.706Z,7.80
2019-01-29T19:05:02.841Z,8.00
2019-01-29T19:06:02.859Z,8.00
2019-01-29T19:07:02.735Z,7.80
2019-01-29T19:08:05.121Z,7.30
2019-01-29T19:09:02.928Z,7.20
2019-01-29T19:10:02.811Z,7.30
2019-01-29T19:11:02.583Z,6.60
2019-01-29T19:12:02.635Z,6.50
2019-01-29T19:13:02.632Z,6.80
2019-01-29T19:14:38.479Z,6.20
2019-01-29T19:16:03.065Z,5.90
2019-01-29T19:19:49.339Z,5.90
2019-01-29T19:20:49.278Z,5.40
2019-01-29T19:21:49.393Z,5.70
2019-01-29T19:22:49.344Z,5.40
2019-01-29T19:23:49.479Z,5.30
2019-01-29T19:24:49.506Z,5.70
2019-01-29T19:25:49.319Z,5.50
2019-01-29T19:26:49.710Z,5.90
2019-01-29T19:27:59.064Z,5.10
2019-01-29T19:28:49.287Z,5.30
2019-01-29T19:30:11.950Z,5.60
2019-01-29T19:30:49.563Z,5.30
2019-01-29T19:31:51.133Z,5.10
2019-01-29T19:33:49.057Z,5.40
2019-01-29T19:34:49.228Z,6.00
2019-01-29T19:35:49.026Z,5.20
2019-01-29T19:36:49.215Z,6.10
2019-01-29T19:37:49.010Z,5.50
2019-01-29T19:38:49.017Z,5.60
2019-01-29T19:39:51.363Z,5.40
2019-01-29T19:40:50.375Z,5.40
2019-01-29T19:41:50.317Z,5.40
2019-01-29T19:43:20.324Z,5.40
2019-01-29T19:43:49.635Z,5.30
2019-01-29T19:45:06.095Z,5.40
2019-01-29T19:45:51.305Z,5.90
2019-01-29T19:46:51.413Z,5.40
2019-01-29T19:48:05.345Z,4.90
2019-01-29T20:04:09.566Z,5.60
2019-01-29T20:05:08.732Z,5.90
2019-01-29T20:06:09.145Z,6.20
2019-01-29T20:07:09.146Z,5.60
2019-01-29T20:08:08.781Z,5.80
2019-01-29T20:09:38.032Z,5.80
2019-01-29T20:27:26.516Z,6.30
2019-01-29T20:28:30.812Z,7.00
2019-01-29T20:29:27.187Z,7.00
2019-01-29T20:30:28.055Z,7.80
2019-01-29T20:31:26.980Z,6.90
2019-01-29T20:32:26.751Z,7.10
2019-01-29T20:33:28.061Z,7.40
2019-01-29T20:43:54.684Z,7.50
2019-01-29T20:44:55.727Z,7.70
2019-01-29T20:45:54.559Z,7.00
2019-01-29T20:46:55.228Z,7.30
2019-01-29T20:47:54.872Z,7.10
2019-01-29T20:48:54.753Z,7.30
2019-01-29T20:49:54.626Z,6.50
2019-01-29T20:50:54.513Z,6.90
2019-01-29T20:51:54.678Z,6.70
2019-01-29T20:52:54.653Z,7.00
2019-01-29T20:53:54.791Z,6.70
2019-01-29T20:54:54.878Z,7.00
2019-01-29T20:55:54.717Z,6.80
2019-01-29T20:56:54.835Z,6.60
2019-01-29T20:57:55.142Z,6.70
2019-01-29T20:58:59.112Z,6.30
2019-01-29T20:59:56.956Z,6.90
2019-01-29T21:01:02.203Z,6.70
2019-01-29T21:01:55.537Z,6.50
2019-01-29T21:02:55.318Z,6.70
2019-01-29T21:03:55.359Z,6.70
2019-01-29T21:09:41.624Z,6.90
2019-01-29T21:10:40.666Z,6.60
2019-01-29T21:11:40.404Z,5.70
2019-01-29T21:12:40.448Z,5.80
2019-01-29T21:13:40.670Z,6.10
2019-01-29T21:14:40.854Z,5.70
2019-01-29T21:15:41.384Z,6.10
2019-01-29T21:16:42.985Z,5.90
2019-01-29T21:17:42.400Z,5.60
2019-01-29T21:18:40.418Z,5.70
2019-01-29T21:19:40.509Z,5.30
2019-01-29T21:20:40.438Z,5.20
2019-01-29T21:21:40.503Z,5.50
2019-01-29T21:22:41.301Z,5.10
2019-01-29T21:23:40.568Z,4.90
2019-01-29T21:24:40.786Z,5.10
2019-01-29T21:25:40.308Z,5.00
2019-01-29T21:26:40.897Z,5.00
2019-01-29T21:27:40.289Z,4.90
2019-01-29T21:28:40.223Z,4.60
2019-01-29T21:29:40.237Z,4.70
2019-01-29T21:30:40.193Z,4.40
2019-01-29T21:31:40.165Z,4.40
2019-01-29T21:32:40.214Z,5.10
2019-01-29T21:33:40.215Z,4.70
2019-01-29T21:34:40.188Z,4.30
2019-01-29T21:35:40.834Z,4.50
2019-01-29T21:36:40.277Z,4.40
2019-01-29T21:37:40.109Z,4.30
2019-01-29T21:38:40.110Z,4.60
2019-01-29T21:39:40.103Z,4.20
2019-01-29T21:40:40.057Z,4.70
2019-01-29T21:41:40.064Z,4.50
2019-01-29T21:42:40.729Z,4.40
2019-01-29T21:55:45.245Z,4.20
2019-01-29T21:56:45.321Z,4.80
2019-01-29T21:57:45.143Z,5.00
2019-01-29T21:58:44.278Z,5.40
2019-01-29T21:59:50.522Z,6.20
2019-01-29T22:00:43.909Z,6.10
2019-01-29T22:01:44.726Z,5.50
2019-01-29T22:02:45.151Z,6.50
2019-01-29T22:03:43.889Z,5.70
2019-01-29T22:05:01.252Z,5.60
2019-01-29T22:05:46.430Z,7.20
2019-01-29T22:06:43.805Z,6.50
2019-01-29T22:07:43.627Z,6.20
2019-01-29T22:08:43.595Z,5.20
2019-01-29T22:09:43.857Z,6.20
2019-01-29T22:10:43.856Z,5.90
2019-01-29T22:11:44.199Z,6.20
2019-01-29T22:12:44.867Z,4.40
2019-01-29T22:13:43.678Z,4.30
2019-01-29T22:14:43.634Z,4.50
2019-01-29T22:15:43.729Z,4.30
2019-01-29T22:16:43.749Z,4.20
2019-01-29T22:17:43.705Z,3.90
2019-01-29T22:18:43.579Z,4.30
2019-01-29T22:19:43.591Z,4.40
2019-01-29T22:22:18.744Z,3.80
2019-01-29T22:23:18.893Z,4.30
2019-01-29T22:24:18.375Z,4.30
2019-01-29T22:25:18.341Z,4.40
2019-01-29T22:26:18.111Z,4.10
2019-01-29T22:37:49.873Z,4.50
2019-01-29T22:38:50.013Z,4.70
2019-01-29T22:39:50.058Z,4.80
2019-01-29T22:40:49.765Z,5.10
2019-01-29T22:41:49.611Z,4.70
2019-01-29T22:42:49.670Z,5.30
2019-01-29T22:43:49.662Z,4.90
2019-01-29T22:44:49.505Z,5.00
2019-01-29T22:45:49.504Z,5.30
2019-01-29T22:46:49.459Z,5.50
2019-01-29T22:54:50.273Z,5.40
2019-01-29T22:55:50.264Z,5.40
2019-01-29T22:56:50.592Z,5.60
2019-01-29T22:57:50.058Z,5.70
2019-01-29T22:58:50.050Z,6.40
2019-01-29T22:59:49.977Z,5.80
2019-01-29T23:00:50.191Z,5.80
2019-01-29T23:01:49.917Z,5.80
2019-01-29T23:02:49.910Z,5.40
2019-01-29T23:03:49.931Z,5.30
2019-01-29T23:04:49.886Z,5.50
2019-01-29T23:05:49.907Z,5.90
2019-01-29T23:06:49.862Z,6.00
2019-01-29T23:07:49.863Z,6.30
2019-01-29T23:08:49.876Z,6.10
2019-01-29T23:09:49.851Z,6.30
2019-01-29T23:10:49.821Z,6.20
2019-01-29T23:11:49.812Z,5.90
2019-01-29T23:12:49.803Z,5.70
2019-01-29T23:13:49.898Z,6.10
2019-01-29T23:14:49.882Z,6.10
2019-01-29T23:15:49.823Z,6.30
2019-01-29T23:16:49.810Z,6.40
2019-01-29T23:17:49.853Z,6.30
2019-01-29T23:18:49.805Z,6.20
2019-01-29T23:19:58.743Z,6.40
2019-01-29T23:20:49.867Z,6.20
2019-01-29T23:21:49.842Z,6.00
2019-01-29T23:22:49.813Z,6.10
2019-01-29T23:23:49.737Z,6.50
2019-01-29T23:24:49.825Z,6.50
2019-01-29T23:25:49.854Z,6.20
2019-01-29T23:26:49.784Z,6.40
2019-01-29T23:27:49.641Z,6.50
2019-01-29T23:29:59.743Z,6.60
2019-01-29T23:30:59.630Z,6.20
2019-01-29T23:31:59.760Z,6.80
2019-01-29T23:32:59.608Z,6.60
2019-01-29T23:33:59.596Z,6.80
2019-01-29T23:34:59.586Z,6.60
2019-01-29T23:35:59.629Z,6.60
2019-01-29T23:36:59.567Z,6.90
2019-01-29T23:37:59.553Z,6.40
2019-01-29T23:38:59.548Z,6.30
2019-01-29T23:39:59.554Z,6.20
2019-01-29T23:40:59.563Z,6.30
2019-01-29T23:41:59.507Z,6.30
2019-01-29T23:42:59.497Z,6.80
2019-01-29T23:43:59.489Z,6.60
2019-01-29T23:44:59.486Z,7.40
2019-01-29T23:45:59.508Z,6.50
2019-01-29T23:47:00.142Z,6.60
2019-01-29T23:47:59.450Z,6.80
2019-01-29T23:48:59.434Z,6.40
2019-01-29T23:49:59.435Z,6.50
2019-01-29T23:50:59.447Z,6.90
2019-01-29T23:51:59.429Z,7.00
2019-01-29T23:52:59.396Z,6.80
2019-01-29T23:53:59.420Z,7.10
2019-01-29T23:54:59.391Z,6.50
2019-01-29T23:55:59.366Z,6.70
2019-01-29T23:56:59.368Z,6.40
2019-01-29T23:57:59.346Z,6.60
2019-01-29T23:58:59.345Z,6.70
2019-01-29T23:59:59.325Z,6.50
